Terminal Aerodrome Forecast
Issued by NWS Wichita, KS

Home | Current Version | Previous Version | Graphics & Text | Print | Product List | Glossary On
Versions: 1 2 3 4 5 6 7 8 9 10 11 12 13 14 15 16 17 18 19
000
FTUS43 KICT 231120
TAFICT
TAF
KICT 231120Z 2312/2412 17015G22KT P6SM BKN015
     FM231600 25012KT P6SM VCSH OVC015
     FM231900 33027G36KT 5SM -RA BKN025
     FM240200 34020G28KT P6SM OVC060
     FM240600 29014KT P6SM FEW100 SCT250=

USA.gov is the U.S. government's official web portal to all federal, state and local government web resources and services.